首页
METAR-TAF:

METAR-TAF

机场 :

科泽科德国际机场

科泽科德, 印度

纬度: 11-08-24N, 经度: 75-57-00E, 海拔: 104米

当前天气观测

该预报发布于21分钟前的14:00 UTC
风速5节,风向西
温度 27°C
湿度 79%
气压 1008 hPa
能見度: 6000
散云层高于1200英尺
少量云层高于2500英尺, 积雨云.
多云层高于8000英尺

METAR: VOCL 171400Z 26005KT 6000 SCT012 FEW025CB BKN080 27/23 Q1008 NOSIG

时间: 19:51 (14:21 UTC)

预报

该预报发布于3小时和21分钟前的11:00 UTC
预报有效从17日的 12点(UTC)到 18日的 18点(UTC)
风速10节,风向西
能見度: 4000
散云层高于1200英尺
少量云层高于2500英尺, 积雨云.
多云层高于8000英尺
小雨, 轻雾
短暂存在
从 17日的 22点(UTC)到 18日的 02点(UTC)
风速3节,风向多变
能見度: 3000
散云层高于1200英尺
少量云层高于2500英尺, 积雨云.
多云层高于8000英尺
雷暴, 雨, 轻雾
成为
从 18日的 03点(UTC)到 18日的 05点(UTC)
风速5节,风向西
能見度: 5000
散云层高于1500英尺
多云层高于8000英尺
轻雾
短暂存在
从 18日的 08点(UTC)到 18日的 12点(UTC)
风速10节,风向西
能見度: 3000
少量云层高于600英尺
散云层高于1200英尺
少量云层高于2500英尺, 积雨云.
阴天层高于8000英尺
雷暴, 雨, 雨
成为
从 18日的 14点(UTC)到 18日的 16点(UTC)
能見度: 4000
小雨, 轻雾,

TAF: VOCL 171100Z 1712/1818 27010KT 4000 -RA BR SCT012 FEW025CB BKN080 TEMPO 1722/1802 VRB03KT 3000 TSRA BR FEW 004 SCT012 FEW025CB BKN080 BECMG 1803/1805 26005KT 5000 BR SCT015 BKN080 TEMPO 1808/1812 28010KT 3000 TSRA RA FEW006 SCT012 FEW025CB OVC080 BECMG 1814/1816 4000 -RA BR

超过4000个机场的气象观测和天气预报(METAR&TAF报告)。

可查询的气象台以黄色和红色小点在地图上表示。

将鼠标移到小点上方,可查看气象台名称。

然后点击查看天气观测和预报。

如需切换地图:点击带黑十字的绿色按钮放大地图;点击带横线的绿色按钮缩小地图;或者点击绿色箭头查看邻近地区的地图。


METAR-TAF: